sensor_id;sensor_type;location;lat;lon;timestamp;P1;durP1;ratioP1;P2;durP2;ratioP2
1346;SDS011;667;48.796;9.480;2024-01-15T00:00:37;25.40;;;13.13;;
1346;SDS011;667;48.796;9.480;2024-01-15T00:03:06;27.77;;;14.20;;
1346;SDS011;667;48.796;9.480;2024-01-15T00:05:32;39.17;;;15.10;;
1346;SDS011;667;48.796;9.480;2024-01-15T00:07:57;30.80;;;14.03;;
1346;SDS011;667;48.796;9.480;2024-01-15T00:10:23;33.43;;;13.43;;
1346;SDS011;667;48.796;9.480;2024-01-15T00:12:48;33.67;;;15.47;;
1346;SDS011;667;48.796;9.480;2024-01-15T00:15:14;27.07;;;14.23;;
1346;SDS011;667;48.796;9.480;2024-01-15T00:17:40;28.00;;;13.60;;
1346;SDS011;667;48.796;9.480;2024-01-15T00:20:06;31.33;;;15.43;;
1346;SDS011;667;48.796;9.480;2024-01-15T00:22:32;26.98;;;14.90;;
1346;SDS011;667;48.796;9.480;2024-01-15T00:24:57;22.90;;;13.63;;
1346;SDS011;667;48.796;9.480;2024-01-15T00:27:23;32.00;;;14.70;;
1346;SDS011;667;48.796;9.480;2024-01-15T00:29:49;30.80;;;16.50;;
1346;SDS011;667;48.796;9.480;2024-01-15T00:32:16;36.25;;;16.15;;
1346;SDS011;667;48.796;9.480;2024-01-15T00:34:42;30.17;;;14.00;;
1346;SDS011;667;48.796;9.480;2024-01-15T00:37:07;30.17;;;14.00;;
1346;SDS011;667;48.796;9.480;2024-01-15T00:39:33;31.93;;;14.90;;
1346;SDS011;667;48.796;9.480;2024-01-15T00:41:58;28.93;;;15.87;;
1346;SDS011;667;48.796;9.480;2024-01-15T00:44:24;28.90;;;15.30;;
1346;SDS011;667;48.796;9.480;2024-01-15T00:46:50;30.40;;;16.17;;
1346;SDS011;667;48.796;9.480;2024-01-15T00:49:15;31.53;;;15.30;;
1346;SDS011;667;48.796;9.480;2024-01-15T00:51:41;30.80;;;15.25;;
1346;SDS011;667;48.796;9.480;2024-01-15T00:54:07;28.60;;;15.27;;
1346;SDS011;667;48.796;9.480;2024-01-15T00:56:32;35.40;;;16.40;;
1346;SDS011;667;48.796;9.480;2024-01-15T00:58:58;28.97;;;14.77;;
1346;SDS011;667;48.796;9.480;2024-01-15T01:01:24;25.85;;;13.52;;
1346;SDS011;667;48.796;9.480;2024-01-15T01:03:50;27.43;;;14.30;;
1346;SDS011;667;48.796;9.480;2024-01-15T01:06:15;28.70;;;15.60;;
1346;SDS011;667;48.796;9.480;2024-01-15T01:08:41;27.23;;;14.10;;
1346;SDS011;667;48.796;9.480;2024-01-15T01:11:06;30.33;;;16.30;;
1346;SDS011;667;48.796;9.480;2024-01-15T01:13:32;22.20;;;13.33;;
1346;SDS011;667;48.796;9.480;2024-01-15T01:15:58;23.80;;;13.70;;
1346;SDS011;667;48.796;9.480;2024-01-15T01:18:23;28.30;;;15.63;;
1346;SDS011;667;48.796;9.480;2024-01-15T01:20:49;28.47;;;14.83;;
1346;SDS011;667;48.796;9.480;2024-01-15T01:23:14;28.83;;;13.90;;
1346;SDS011;667;48.796;9.480;2024-01-15T01:25:40;30.53;;;13.27;;
1346;SDS011;667;48.796;9.480;2024-01-15T01:28:05;27.90;;;14.33;;
1346;SDS011;667;48.796;9.480;2024-01-15T01:30:31;28.50;;;13.00;;
1346;SDS011;667;48.796;9.480;2024-01-15T01:32:57;30.50;;;15.63;;
1346;SDS011;667;48.796;9.480;2024-01-15T01:35:22;26.40;;;13.87;;
1346;SDS011;667;48.796;9.480;2024-01-15T01:37:48;29.93;;;14.23;;
1346;SDS011;667;48.796;9.480;2024-01-15T01:40:13;29.90;;;14.40;;
1346;SDS011;667;48.796;9.480;2024-01-15T01:42:39;29.07;;;14.60;;
1346;SDS011;667;48.796;9.480;2024-01-15T01:45:05;27.20;;;14.80;;
1346;SDS011;667;48.796;9.480;2024-01-15T01:47:31;29.10;;;14.27;;
1346;SDS011;667;48.796;9.480;2024-01-15T01:49:57;31.08;;;15.68;;
1346;SDS011;667;48.796;9.480;2024-01-15T01:52:22;30.87;;;13.80;;
1346;SDS011;667;48.796;9.480;2024-01-15T01:54:49;33.70;;;15.85;;
1346;SDS011;667;48.796;9.480;2024-01-15T01:57:15;27.67;;;13.50;;
1346;SDS011;667;48.796;9.480;2024-01-15T01:59:43;29.42;;;15.25;;
1346;SDS011;667;48.796;9.480;2024-01-15T02:02:09;31.40;;;15.63;;
1346;SDS011;667;48.796;9.480;2024-01-15T02:04:35;31.27;;;15.10;;
1346;SDS011;667;48.796;9.480;2024-01-15T02:07:01;29.65;;;15.13;;
1346;SDS011;667;48.796;9.480;2024-01-15T02:09:27;26.30;;;13.98;;
1346;SDS011;667;48.796;9.480;2024-01-15T02:11:53;28.80;;;14.67;;
1346;SDS011;667;48.796;9.480;2024-01-15T02:14:19;30.43;;;14.93;;
1346;SDS011;667;48.796;9.480;2024-01-15T02:16:44;31.50;;;15.37;;
1346;SDS011;667;48.796;9.480;2024-01-15T02:19:16;29.83;;;15.37;;
1346;SDS011;667;48.796;9.480;2024-01-15T02:21:42;28.50;;;13.73;;
1346;SDS011;667;48.796;9.480;2024-01-15T02:24:08;18.43;;;9.93;;
1346;SDS011;667;48.796;9.480;2024-01-15T02:26:34;16.20;;;9.97;;
1346;SDS011;667;48.796;9.480;2024-01-15T02:29:01;15.70;;;9.05;;
1346;SDS011;667;48.796;9.480;2024-01-15T02:31:27;13.73;;;7.72;;
1346;SDS011;667;48.796;9.480;2024-01-15T02:33:52;22.37;;;10.63;;
1346;SDS011;667;48.796;9.480;2024-01-15T02:36:18;24.53;;;12.33;;
1346;SDS011;667;48.796;9.480;2024-01-15T02:38:43;26.13;;;12.47;;
1346;SDS011;667;48.796;9.480;2024-01-15T02:41:09;17.07;;;10.57;;
1346;SDS011;667;48.796;9.480;2024-01-15T02:43:34;16.97;;;8.47;;
1346;SDS011;667;48.796;9.480;2024-01-15T02:46:00;20.37;;;8.90;;
1346;SDS011;667;48.796;9.480;2024-01-15T02:48:25;20.57;;;11.17;;
1346;SDS011;667;48.796;9.480;2024-01-15T02:50:51;19.87;;;10.90;;
1346;SDS011;667;48.796;9.480;2024-01-15T02:53:17;21.87;;;11.40;;
1346;SDS011;667;48.796;9.480;2024-01-15T02:55:42;27.97;;;12.60;;
1346;SDS011;667;48.796;9.480;2024-01-15T02:58:08;27.77;;;13.70;;
1346;SDS011;667;48.796;9.480;2024-01-15T03:00:33;18.00;;;10.67;;
1346;SDS011;667;48.796;9.480;2024-01-15T03:02:59;22.17;;;11.80;;
1346;SDS011;667;48.796;9.480;2024-01-15T03:05:24;16.60;;;9.60;;
1346;SDS011;667;48.796;9.480;2024-01-15T03:07:50;16.67;;;8.43;;
1346;SDS011;667;48.796;9.480;2024-01-15T03:10:16;19.73;;;8.90;;
1346;SDS011;667;48.796;9.480;2024-01-15T03:12:41;22.93;;;11.53;;
1346;SDS011;667;48.796;9.480;2024-01-15T03:15:07;17.80;;;10.43;;
1346;SDS011;667;48.796;9.480;2024-01-15T03:17:32;19.50;;;11.87;;
1346;SDS011;667;48.796;9.480;2024-01-15T03:19:58;25.40;;;12.90;;
1346;SDS011;667;48.796;9.480;2024-01-15T03:22:24;28.60;;;13.00;;
1346;SDS011;667;48.796;9.480;2024-01-15T03:24:49;22.30;;;9.70;;
1346;SDS011;667;48.796;9.480;2024-01-15T03:27:15;16.63;;;8.73;;
1346;SDS011;667;48.796;9.480;2024-01-15T03:29:40;18.13;;;8.17;;
1346;SDS011;667;48.796;9.480;2024-01-15T03:32:06;17.17;;;8.03;;
1346;SDS011;667;48.796;9.480;2024-01-15T03:34:32;12.20;;;7.03;;
1346;SDS011;667;48.796;9.480;2024-01-15T03:36:57;10.30;;;6.20;;
1346;SDS011;667;48.796;9.480;2024-01-15T03:39:24;14.63;;;6.88;;
1346;SDS011;667;48.796;9.480;2024-01-15T03:41:49;11.80;;;6.90;;
1346;SDS011;667;48.796;9.480;2024-01-15T03:44:15;12.27;;;6.30;;
1346;SDS011;667;48.796;9.480;2024-01-15T03:46:40;17.20;;;8.53;;
1346;SDS011;667;48.796;9.480;2024-01-15T03:49:06;13.60;;;7.43;;
1346;SDS011;667;48.796;9.480;2024-01-15T03:51:32;10.70;;;6.67;;
1346;SDS011;667;48.796;9.480;2024-01-15T03:53:57;15.27;;;8.17;;
1346;SDS011;667;48.796;9.480;2024-01-15T03:56:23;9.73;;;6.43;;
1346;SDS011;667;48.796;9.480;2024-01-15T03:58:48;12.07;;;7.30;;
1346;SDS011;667;48.796;9.480;2024-01-15T04:01:14;10.77;;;6.70;;
1346;SDS011;667;48.796;9.480;2024-01-15T04:03:39;10.17;;;6.43;;
1346;SDS011;667;48.796;9.480;2024-01-15T04:06:05;8.13;;;5.97;;
1346;SDS011;667;48.796;9.480;2024-01-15T04:08:30;12.43;;;6.80;;
1346;SDS011;667;48.796;9.480;2024-01-15T04:10:56;15.30;;;6.43;;
1346;SDS011;667;48.796;9.480;2024-01-15T04:13:22;13.27;;;6.37;;
1346;SDS011;667;48.796;9.480;2024-01-15T04:15:47;13.43;;;7.60;;
1346;SDS011;667;48.796;9.480;2024-01-15T04:18:13;10.40;;;6.57;;
1346;SDS011;667;48.796;9.480;2024-01-15T04:20:40;16.27;;;7.00;;
1346;SDS011;667;48.796;9.480;2024-01-15T04:23:06;14.50;;;7.00;;
1346;SDS011;667;48.796;9.480;2024-01-15T04:25:31;16.50;;;7.63;;
1346;SDS011;667;48.796;9.480;2024-01-15T04:27:57;12.00;;;7.17;;
1346;SDS011;667;48.796;9.480;2024-01-15T04:30:22;13.60;;;6.63;;
1346;SDS011;667;48.796;9.480;2024-01-15T04:32:48;14.20;;;6.27;;
1346;SDS011;667;48.796;9.480;2024-01-15T04:35:13;12.80;;;6.93;;
1346;SDS011;667;48.796;9.480;2024-01-15T04:37:39;18.50;;;6.67;;
1346;SDS011;667;48.796;9.480;2024-01-15T04:40:06;12.20;;;6.70;;
1346;SDS011;667;48.796;9.480;2024-01-15T04:42:32;14.30;;;7.03;;
1346;SDS011;667;48.796;9.480;2024-01-15T04:44:58;16.97;;;8.57;;
1346;SDS011;667;48.796;9.480;2024-01-15T04:47:23;14.10;;;7.30;;
1346;SDS011;667;48.796;9.480;2024-01-15T04:49:49;12.20;;;6.50;;
1346;SDS011;667;48.796;9.480;2024-01-15T04:52:15;14.80;;;7.80;;
1346;SDS011;667;48.796;9.480;2024-01-15T04:54:40;10.13;;;6.73;;
1346;SDS011;667;48.796;9.480;2024-01-15T04:57:06;13.37;;;6.50;;
1346;SDS011;667;48.796;9.480;2024-01-15T04:59:31;12.37;;;7.30;;
1346;SDS011;667;48.796;9.480;2024-01-15T05:01:57;13.77;;;8.37;;
1346;SDS011;667;48.796;9.480;2024-01-15T05:04:22;11.73;;;7.67;;
1346;SDS011;667;48.796;9.480;2024-01-15T05:06:49;14.07;;;7.30;;
1346;SDS011;667;48.796;9.480;2024-01-15T05:09:15;9.30;;;6.20;;
1346;SDS011;667;48.796;9.480;2024-01-15T05:11:41;12.43;;;6.57;;
1346;SDS011;667;48.796;9.480;2024-01-15T05:14:06;13.07;;;7.13;;
1346;SDS011;667;48.796;9.480;2024-01-15T05:16:32;10.33;;;6.30;;
1346;SDS011;667;48.796;9.480;2024-01-15T05:18:57;39.97;;;23.40;;
1346;SDS011;667;48.796;9.480;2024-01-15T05:21:23;18.23;;;10.23;;
1346;SDS011;667;48.796;9.480;2024-01-15T05:23:48;17.40;;;9.13;;
1346;SDS011;667;48.796;9.480;2024-01-15T05:26:14;20.20;;;11.07;;
1346;SDS011;667;48.796;9.480;2024-01-15T05:28:43;19.53;;;10.80;;
1346;SDS011;667;48.796;9.480;2024-01-15T05:31:09;21.45;;;11.30;;
1346;SDS011;667;48.796;9.480;2024-01-15T05:33:35;17.88;;;11.82;;
1346;SDS011;667;48.796;9.480;2024-01-15T05:36:01;14.60;;;9.27;;
1346;SDS011;667;48.796;9.480;2024-01-15T05:38:27;15.95;;;9.23;;
1346;SDS011;667;48.796;9.480;2024-01-15T05:40:53;16.13;;;8.90;;
1346;SDS011;667;48.796;9.480;2024-01-15T05:43:18;15.90;;;8.20;;
1346;SDS011;667;48.796;9.480;2024-01-15T05:45:44;14.53;;;7.57;;
1346;SDS011;667;48.796;9.480;2024-01-15T05:48:10;13.87;;;6.40;;
1346;SDS011;667;48.796;9.480;2024-01-15T05:50:36;12.27;;;6.28;;
1346;SDS011;667;48.796;9.480;2024-01-15T05:53:01;13.90;;;6.33;;
1346;SDS011;667;48.796;9.480;2024-01-15T05:55:27;13.97;;;6.97;;
1346;SDS011;667;48.796;9.480;2024-01-15T05:57:56;10.13;;;5.43;;
1346;SDS011;667;48.796;9.480;2024-01-15T06:00:23;12.93;;;6.10;;
1346;SDS011;667;48.796;9.480;2024-01-15T06:02:49;13.23;;;6.50;;
1346;SDS011;667;48.796;9.480;2024-01-15T06:05:14;14.97;;;5.63;;
1346;SDS011;667;48.796;9.480;2024-01-15T06:07:41;10.50;;;6.33;;
1346;SDS011;667;48.796;9.480;2024-01-15T06:10:07;11.88;;;6.38;;
1346;SDS011;667;48.796;9.480;2024-01-15T06:12:32;12.77;;;7.15;;
1346;SDS011;667;48.796;9.480;2024-01-15T06:14:58;11.20;;;7.03;;
1346;SDS011;667;48.796;9.480;2024-01-15T06:17:24;12.63;;;6.37;;
1346;SDS011;667;48.796;9.480;2024-01-15T06:19:49;13.07;;;7.37;;
1346;SDS011;667;48.796;9.480;2024-01-15T06:22:15;10.50;;;6.80;;
1346;SDS011;667;48.796;9.480;2024-01-15T06:24:41;14.63;;;7.40;;
1346;SDS011;667;48.796;9.480;2024-01-15T06:27:06;11.43;;;6.57;;
1346;SDS011;667;48.796;9.480;2024-01-15T06:29:32;10.03;;;6.80;;
1346;SDS011;667;48.796;9.480;2024-01-15T06:31:57;15.03;;;8.17;;
1346;SDS011;667;48.796;9.480;2024-01-15T06:34:23;15.67;;;9.43;;
1346;SDS011;667;48.796;9.480;2024-01-15T06:36:49;12.47;;;7.20;;
1346;SDS011;667;48.796;9.480;2024-01-15T06:39:14;13.80;;;8.00;;
1346;SDS011;667;48.796;9.480;2024-01-15T06:41:40;12.30;;;6.50;;
1346;SDS011;667;48.796;9.480;2024-01-15T06:44:11;14.95;;;7.90;;
1346;SDS011;667;48.796;9.480;2024-01-15T06:46:44;12.75;;;8.30;;
1346;SDS011;667;48.796;9.480;2024-01-15T06:49:10;14.40;;;9.00;;
1346;SDS011;667;48.796;9.480;2024-01-15T06:51:37;23.65;;;18.00;;
1346;SDS011;667;48.796;9.480;2024-01-15T06:54:02;20.37;;;14.60;;
1346;SDS011;667;48.796;9.480;2024-01-15T06:56:28;16.23;;;10.43;;
1346;SDS011;667;48.796;9.480;2024-01-15T06:58:53;23.20;;;11.30;;
1346;SDS011;667;48.796;9.480;2024-01-15T07:01:19;18.90;;;11.63;;
1346;SDS011;667;48.796;9.480;2024-01-15T07:03:45;28.10;;;16.47;;
1346;SDS011;667;48.796;9.480;2024-01-15T07:06:11;14.10;;;10.47;;
1346;SDS011;667;48.796;9.480;2024-01-15T07:08:37;23.70;;;14.43;;
1346;SDS011;667;48.796;9.480;2024-01-15T07:11:03;16.05;;;10.50;;
1346;SDS011;667;48.796;9.480;2024-01-15T07:13:30;14.43;;;9.93;;
1346;SDS011;667;48.796;9.480;2024-01-15T07:15:55;16.37;;;9.50;;
1346;SDS011;667;48.796;9.480;2024-01-15T07:18:21;17.50;;;10.83;;
1346;SDS011;667;48.796;9.480;2024-01-15T07:20:47;13.03;;;7.07;;
1346;SDS011;667;48.796;9.480;2024-01-15T07:23:12;16.17;;;9.57;;
1346;SDS011;667;48.796;9.480;2024-01-15T07:25:38;18.67;;;8.80;;
1346;SDS011;667;48.796;9.480;2024-01-15T07:28:03;22.43;;;13.30;;
1346;SDS011;667;48.796;9.480;2024-01-15T07:30:29;17.25;;;9.82;;
1346;SDS011;667;48.796;9.480;2024-01-15T07:32:55;18.47;;;11.80;;
1346;SDS011;667;48.796;9.480;2024-01-15T07:35:20;15.30;;;9.73;;
1346;SDS011;667;48.796;9.480;2024-01-15T07:37:46;13.73;;;9.90;;
1346;SDS011;667;48.796;9.480;2024-01-15T07:40:11;26.13;;;19.00;;
1346;SDS011;667;48.796;9.480;2024-01-15T07:42:37;23.20;;;13.60;;
1346;SDS011;667;48.796;9.480;2024-01-15T07:45:03;43.53;;;26.13;;
1346;SDS011;667;48.796;9.480;2024-01-15T07:47:29;17.73;;;11.10;;
1346;SDS011;667;48.796;9.480;2024-01-15T07:49:55;11.00;;;7.07;;
1346;SDS011;667;48.796;9.480;2024-01-15T07:52:21;26.20;;;17.67;;
1346;SDS011;667;48.796;9.480;2024-01-15T07:54:46;13.80;;;9.37;;
1346;SDS011;667;48.796;9.480;2024-01-15T07:57:12;24.90;;;18.83;;
1346;SDS011;667;48.796;9.480;2024-01-15T07:59:38;24.60;;;19.67;;
1346;SDS011;667;48.796;9.480;2024-01-15T08:02:05;17.13;;;12.98;;
1346;SDS011;667;48.796;9.480;2024-01-15T08:04:30;27.60;;;20.00;;
1346;SDS011;667;48.796;9.480;2024-01-15T08:06:56;17.90;;;12.50;;
1346;SDS011;667;48.796;9.480;2024-01-15T08:09:22;19.37;;;12.33;;
1346;SDS011;667;48.796;9.480;2024-01-15T08:11:47;10.90;;;8.70;;
1346;SDS011;667;48.796;9.480;2024-01-15T08:14:14;16.73;;;10.85;;
1346;SDS011;667;48.796;9.480;2024-01-15T08:16:40;12.37;;;7.17;;
1346;SDS011;667;48.796;9.480;2024-01-15T08:19:05;12.37;;;8.23;;
1346;SDS011;667;48.796;9.480;2024-01-15T08:21:31;10.97;;;6.37;;
1346;SDS011;667;48.796;9.480;2024-01-15T08:23:57;9.70;;;5.70;;
1346;SDS011;667;48.796;9.480;2024-01-15T08:26:24;12.68;;;6.70;;
1346;SDS011;667;48.796;9.480;2024-01-15T08:28:49;9.45;;;5.72;;
1346;SDS011;667;48.796;9.480;2024-01-15T08:31:16;8.10;;;4.82;;
1346;SDS011;667;48.796;9.480;2024-01-15T08:33:42;8.07;;;5.63;;
1346;SDS011;667;48.796;9.480;2024-01-15T08:36:07;8.80;;;5.70;;
1346;SDS011;667;48.796;9.480;2024-01-15T08:38:34;7.05;;;4.93;;
1346;SDS011;667;48.796;9.480;2024-01-15T08:40:59;6.33;;;5.20;;
1346;SDS011;667;48.796;9.480;2024-01-15T08:43:25;6.03;;;3.90;;
1346;SDS011;667;48.796;9.480;2024-01-15T08:45:52;10.50;;;5.88;;
1346;SDS011;667;48.796;9.480;2024-01-15T08:48:17;6.40;;;4.03;;
1346;SDS011;667;48.796;9.480;2024-01-15T08:50:43;11.57;;;4.90;;
1346;SDS011;667;48.796;9.480;2024-01-15T08:53:10;9.57;;;5.22;;
1346;SDS011;667;48.796;9.480;2024-01-15T08:55:36;6.32;;;4.97;;
1346;SDS011;667;48.796;9.480;2024-01-15T08:58:02;7.70;;;5.10;;
1346;SDS011;667;48.796;9.480;2024-01-15T09:00:28;11.00;;;4.70;;
1346;SDS011;667;48.796;9.480;2024-01-15T09:02:55;7.80;;;6.65;;
1346;SDS011;667;48.796;9.480;2024-01-15T09:05:21;7.32;;;4.85;;
1346;SDS011;667;48.796;9.480;2024-01-15T09:07:47;8.80;;;4.43;;
1346;SDS011;667;48.796;9.480;2024-01-15T09:10:13;8.00;;;4.47;;
1346;SDS011;667;48.796;9.480;2024-01-15T09:12:38;7.50;;;4.10;;
1346;SDS011;667;48.796;9.480;2024-01-15T09:15:04;9.27;;;5.40;;
1346;SDS011;667;48.796;9.480;2024-01-15T09:17:31;7.70;;;4.30;;
1346;SDS011;667;48.796;9.480;2024-01-15T09:19:57;6.30;;;4.18;;
1346;SDS011;667;48.796;9.480;2024-01-15T09:22:22;10.00;;;5.40;;
1346;SDS011;667;48.796;9.480;2024-01-15T09:24:48;8.03;;;4.90;;
1346;SDS011;667;48.796;9.480;2024-01-15T09:27:13;13.53;;;8.10;;
1346;SDS011;667;48.796;9.480;2024-01-15T09:29:39;11.80;;;6.90;;
1346;SDS011;667;48.796;9.480;2024-01-15T09:32:07;15.52;;;9.60;;
1346;SDS011;667;48.796;9.480;2024-01-15T09:34:36;9.98;;;6.63;;
1346;SDS011;667;48.796;9.480;2024-01-15T09:37:01;12.18;;;8.15;;
1346;SDS011;667;48.796;9.480;2024-01-15T09:39:28;11.77;;;8.50;;
1346;SDS011;667;48.796;9.480;2024-01-15T09:41:55;12.63;;;9.80;;
1346;SDS011;667;48.796;9.480;2024-01-15T09:44:22;15.63;;;8.38;;
1346;SDS011;667;48.796;9.480;2024-01-15T09:46:48;9.50;;;7.20;;
1346;SDS011;667;48.796;9.480;2024-01-15T09:49:16;14.10;;;10.88;;
1346;SDS011;667;48.796;9.480;2024-01-15T09:51:42;8.25;;;6.15;;
1346;SDS011;667;48.796;9.480;2024-01-15T09:54:08;12.93;;;8.30;;
1346;SDS011;667;48.796;9.480;2024-01-15T09:56:35;10.73;;;7.68;;
1346;SDS011;667;48.796;9.480;2024-01-15T09:59:00;8.77;;;6.50;;
1346;SDS011;667;48.796;9.480;2024-01-15T10:01:27;8.27;;;4.25;;
1346;SDS011;667;48.796;9.480;2024-01-15T10:03:53;6.50;;;4.10;;
1346;SDS011;667;48.796;9.480;2024-01-15T10:06:21;6.20;;;4.78;;
1346;SDS011;667;48.796;9.480;2024-01-15T10:08:47;4.63;;;3.92;;
1346;SDS011;667;48.796;9.480;2024-01-15T10:11:16;6.68;;;4.07;;
1346;SDS011;667;48.796;9.480;2024-01-15T10:13:43;9.80;;;5.38;;
1346;SDS011;667;48.796;9.480;2024-01-15T10:16:09;7.45;;;5.18;;
1346;SDS011;667;48.796;9.480;2024-01-15T10:18:36;11.10;;;4.45;;
1346;SDS011;667;48.796;9.480;2024-01-15T10:21:02;5.57;;;4.33;;
1346;SDS011;667;48.796;9.480;2024-01-15T10:23:29;5.80;;;3.72;;
1346;SDS011;667;48.796;9.480;2024-01-15T10:25:57;8.40;;;4.50;;
1346;SDS011;667;48.796;9.480;2024-01-15T10:28:22;6.72;;;4.68;;
1346;SDS011;667;48.796;9.480;2024-01-15T10:30:52;6.57;;;4.15;;
1346;SDS011;667;48.796;9.480;2024-01-15T10:33:21;7.40;;;3.25;;
1346;SDS011;667;48.796;9.480;2024-01-15T10:35:50;4.65;;;3.45;;
1346;SDS011;667;48.796;9.480;2024-01-15T10:38:20;4.63;;;3.50;;
1346;SDS011;667;48.796;9.480;2024-01-15T10:40:47;4.10;;;3.60;;
1346;SDS011;667;48.796;9.480;2024-01-15T10:43:15;4.25;;;3.45;;
1346;SDS011;667;48.796;9.480;2024-01-15T10:45:42;6.07;;;3.60;;
1346;SDS011;667;48.796;9.480;2024-01-15T10:48:09;5.57;;;3.92;;
1346;SDS011;667;48.796;9.480;2024-01-15T10:50:35;5.70;;;3.90;;
1346;SDS011;667;48.796;9.480;2024-01-15T10:53:01;4.47;;;3.50;;
1346;SDS011;667;48.796;9.480;2024-01-15T10:55:28;6.82;;;3.47;;
1346;SDS011;667;48.796;9.480;2024-01-15T10:57:55;6.20;;;3.20;;
1346;SDS011;667;48.796;9.480;2024-01-15T11:00:22;6.88;;;3.80;;
1346;SDS011;667;48.796;9.480;2024-01-15T11:02:50;4.07;;;3.10;;
1346;SDS011;667;48.796;9.480;2024-01-15T11:05:16;4.27;;;2.67;;
1346;SDS011;667;48.796;9.480;2024-01-15T11:07:43;4.00;;;3.13;;
1346;SDS011;667;48.796;9.480;2024-01-15T11:10:37;8.13;;;3.78;;
1346;SDS011;667;48.796;9.480;2024-01-15T11:13:08;4.78;;;3.67;;
1346;SDS011;667;48.796;9.480;2024-01-15T11:15:57;7.50;;;3.63;;
1346;SDS011;667;48.796;9.480;2024-01-15T11:18:32;6.20;;;3.20;;
1346;SDS011;667;48.796;9.480;2024-01-15T11:23:54;5.18;;;3.47;;
1346;SDS011;667;48.796;9.480;2024-01-15T11:26:33;5.18;;;3.30;;
1346;SDS011;667;48.796;9.480;2024-01-15T11:29:09;4.78;;;3.42;;
1346;SDS011;667;48.796;9.480;2024-01-15T11:31:57;4.47;;;3.05;;
1346;SDS011;667;48.796;9.480;2024-01-15T11:35:10;5.55;;;4.07;;
1346;SDS011;667;48.796;9.480;2024-01-15T11:37:18;3.63;;;2.95;;
1346;SDS011;667;48.796;9.480;2024-01-15T11:39:44;5.18;;;3.65;;
1346;SDS011;667;48.796;9.480;2024-01-15T11:42:11;6.13;;;3.85;;
1346;SDS011;667;48.796;9.480;2024-01-15T11:44:39;6.97;;;4.75;;
1346;SDS011;667;48.796;9.480;2024-01-15T11:47:06;8.82;;;5.18;;
1346;SDS011;667;48.796;9.480;2024-01-15T11:52:18;13.65;;;7.80;;
1346;SDS011;667;48.796;9.480;2024-01-15T11:54:49;39.10;;;21.00;;
1346;SDS011;667;48.796;9.480;2024-01-15T11:57:33;24.95;;;14.15;;
1346;SDS011;667;48.796;9.480;2024-01-15T12:00:05;13.48;;;7.93;;
1346;SDS011;667;48.796;9.480;2024-01-15T12:02:33;6.13;;;4.45;;
1346;SDS011;667;48.796;9.480;2024-01-15T12:04:59;11.65;;;5.00;;
1346;SDS011;667;48.796;9.480;2024-01-15T12:07:25;6.87;;;4.27;;
1346;SDS011;667;48.796;9.480;2024-01-15T12:09:50;8.70;;;5.40;;
1346;SDS011;667;48.796;9.480;2024-01-15T12:12:28;7.67;;;4.33;;
1346;SDS011;667;48.796;9.480;2024-01-15T12:15:03;4.57;;;3.40;;
1346;SDS011;667;48.796;9.480;2024-01-15T12:17:28;7.70;;;5.28;;
1346;SDS011;667;48.796;9.480;2024-01-15T12:19:54;6.23;;;4.40;;
1346;SDS011;667;48.796;9.480;2024-01-15T12:22:21;12.35;;;7.35;;
1346;SDS011;667;48.796;9.480;2024-01-15T12:24:47;8.00;;;5.13;;
1346;SDS011;667;48.796;9.480;2024-01-15T12:27:12;6.70;;;6.00;;
1346;SDS011;667;48.796;9.480;2024-01-15T12:29:38;7.70;;;4.53;;
1346;SDS011;667;48.796;9.480;2024-01-15T12:32:04;7.50;;;5.87;;
1346;SDS011;667;48.796;9.480;2024-01-15T12:34:30;8.45;;;5.50;;
1346;SDS011;667;48.796;9.480;2024-01-15T12:36:57;10.02;;;5.50;;
1346;SDS011;667;48.796;9.480;2024-01-15T12:39:24;5.67;;;4.13;;
1346;SDS011;667;48.796;9.480;2024-01-15T12:41:49;6.45;;;3.70;;
1346;SDS011;667;48.796;9.480;2024-01-15T12:44:16;3.97;;;3.58;;
1346;SDS011;667;48.796;9.480;2024-01-15T12:46:41;5.13;;;3.93;;
1346;SDS011;667;48.796;9.480;2024-01-15T12:49:07;7.60;;;3.93;;
1346;SDS011;667;48.796;9.480;2024-01-15T12:51:36;4.82;;;4.00;;
1346;SDS011;667;48.796;9.480;2024-01-15T12:54:01;4.72;;;3.80;;
1346;SDS011;667;48.796;9.480;2024-01-15T12:56:27;5.50;;;4.40;;
1346;SDS011;667;48.796;9.480;2024-01-15T12:58:52;7.37;;;3.80;;
1346;SDS011;667;48.796;9.480;2024-01-15T13:01:18;5.63;;;3.73;;
1346;SDS011;667;48.796;9.480;2024-01-15T13:03:44;6.53;;;4.13;;
1346;SDS011;667;48.796;9.480;2024-01-15T13:06:09;7.40;;;4.73;;
1346;SDS011;667;48.796;9.480;2024-01-15T13:08:35;6.60;;;4.17;;
1346;SDS011;667;48.796;9.480;2024-01-15T13:11:00;6.53;;;3.90;;
1346;SDS011;667;48.796;9.480;2024-01-15T13:13:26;6.40;;;3.93;;
1346;SDS011;667;48.796;9.480;2024-01-15T13:15:52;6.25;;;4.18;;
1346;SDS011;667;48.796;9.480;2024-01-15T13:18:18;6.43;;;4.53;;
1346;SDS011;667;48.796;9.480;2024-01-15T13:20:43;6.40;;;5.10;;
1346;SDS011;667;48.796;9.480;2024-01-15T13:23:10;7.55;;;5.32;;
1346;SDS011;667;48.796;9.480;2024-01-15T13:25:36;8.50;;;5.23;;
1346;SDS011;667;48.796;9.480;2024-01-15T13:28:03;7.05;;;4.63;;
1346;SDS011;667;48.796;9.480;2024-01-15T13:30:30;5.22;;;3.60;;
1346;SDS011;667;48.796;9.480;2024-01-15T13:32:56;4.57;;;3.67;;
1346;SDS011;667;48.796;9.480;2024-01-15T13:35:22;7.07;;;4.80;;
1346;SDS011;667;48.796;9.480;2024-01-15T13:37:48;8.60;;;5.73;;
1346;SDS011;667;48.796;9.480;2024-01-15T13:40:13;7.20;;;5.07;;
1346;SDS011;667;48.796;9.480;2024-01-15T13:42:45;8.00;;;5.32;;
1346;SDS011;667;48.796;9.480;2024-01-15T13:45:11;6.00;;;4.60;;
1346;SDS011;667;48.796;9.480;2024-01-15T13:47:39;6.32;;;3.92;;
1346;SDS011;667;48.796;9.480;2024-01-15T13:50:06;5.53;;;3.83;;
1346;SDS011;667;48.796;9.480;2024-01-15T13:52:32;6.85;;;3.50;;
1346;SDS011;667;48.796;9.480;2024-01-15T13:54:57;5.57;;;4.10;;
1346;SDS011;667;48.796;9.480;2024-01-15T13:57:23;4.17;;;3.77;;
1346;SDS011;667;48.796;9.480;2024-01-15T13:59:49;4.13;;;3.30;;
1346;SDS011;667;48.796;9.480;2024-01-15T14:02:14;6.23;;;3.40;;
1346;SDS011;667;48.796;9.480;2024-01-15T14:04:40;5.88;;;2.90;;
1346;SDS011;667;48.796;9.480;2024-01-15T14:07:06;4.10;;;3.10;;
1346;SDS011;667;48.796;9.480;2024-01-15T14:09:32;4.87;;;3.43;;
1346;SDS011;667;48.796;9.480;2024-01-15T14:11:58;8.63;;;3.10;;
1346;SDS011;667;48.796;9.480;2024-01-15T14:14:24;3.90;;;3.38;;
1346;SDS011;667;48.796;9.480;2024-01-15T14:16:50;4.87;;;2.97;;
1346;SDS011;667;48.796;9.480;2024-01-15T14:19:16;4.60;;;3.37;;
1346;SDS011;667;48.796;9.480;2024-01-15T14:21:41;4.40;;;2.80;;
1346;SDS011;667;48.796;9.480;2024-01-15T14:24:07;4.87;;;3.00;;
1346;SDS011;667;48.796;9.480;2024-01-15T14:26:32;5.40;;;3.30;;
1346;SDS011;667;48.796;9.480;2024-01-15T14:28:58;4.87;;;3.23;;
1346;SDS011;667;48.796;9.480;2024-01-15T14:31:24;4.10;;;3.50;;
1346;SDS011;667;48.796;9.480;2024-01-15T14:33:51;12.88;;;7.50;;
1346;SDS011;667;48.796;9.480;2024-01-15T14:36:17;5.93;;;3.60;;
1346;SDS011;667;48.796;9.480;2024-01-15T14:38:43;6.97;;;3.70;;
1346;SDS011;667;48.796;9.480;2024-01-15T14:41:08;5.70;;;3.23;;
1346;SDS011;667;48.796;9.480;2024-01-15T14:43:34;5.93;;;3.90;;
1346;SDS011;667;48.796;9.480;2024-01-15T14:45:59;25.70;;;22.00;;
1346;SDS011;667;48.796;9.480;2024-01-15T14:48:25;11.77;;;9.77;;
1346;SDS011;667;48.796;9.480;2024-01-15T14:50:50;5.77;;;4.60;;
1346;SDS011;667;48.796;9.480;2024-01-15T14:53:16;6.30;;;4.90;;
1346;SDS011;667;48.796;9.480;2024-01-15T14:55:42;4.97;;;3.63;;
1346;SDS011;667;48.796;9.480;2024-01-15T14:58:08;9.93;;;4.60;;
1346;SDS011;667;48.796;9.480;2024-01-15T15:00:34;11.67;;;7.63;;
1346;SDS011;667;48.796;9.480;2024-01-15T15:02:59;6.93;;;5.00;;
1346;SDS011;667;48.796;9.480;2024-01-15T15:05:25;8.00;;;5.50;;
1346;SDS011;667;48.796;9.480;2024-01-15T15:07:51;6.87;;;4.37;;
1346;SDS011;667;48.796;9.480;2024-01-15T15:10:16;6.03;;;4.77;;
1346;SDS011;667;48.796;9.480;2024-01-15T15:12:42;6.67;;;4.80;;
1346;SDS011;667;48.796;9.480;2024-01-15T15:15:08;9.32;;;6.75;;
1346;SDS011;667;48.796;9.480;2024-01-15T15:17:36;9.30;;;6.90;;